createdAt,value
2018-07-15T00:00:17.646Z,1.43
2018-07-15T00:02:45.910Z,1.27
2018-07-15T00:05:14.534Z,1.10
2018-07-15T00:07:42.809Z,1.50
2018-07-15T00:10:11.075Z,1.37
2018-07-15T00:12:39.680Z,1.20
2018-07-15T00:15:11.196Z,1.20
2018-07-15T00:17:42.820Z,1.63
2018-07-15T00:20:11.099Z,1.20
2018-07-15T00:22:39.703Z,1.10
2018-07-15T00:25:08.015Z,1.40
2018-07-15T00:27:36.043Z,1.30
2018-07-15T00:30:04.691Z,1.23
2018-07-15T00:32:32.964Z,1.03
2018-07-15T00:35:01.561Z,1.50
2018-07-15T00:37:29.842Z,1.00
2018-07-15T00:39:58.170Z,1.23
2018-07-15T00:42:26.430Z,1.60
2018-07-15T00:44:54.770Z,1.20
2018-07-15T00:47:23.225Z,1.30
2018-07-15T00:49:51.612Z,1.40
2018-07-15T00:52:19.978Z,1.33
2018-07-15T00:54:48.323Z,1.50
2018-07-15T00:57:16.622Z,1.33
2018-07-15T00:59:44.888Z,1.40
2018-07-15T01:02:13.335Z,1.30
2018-07-15T01:04:41.585Z,1.43
2018-07-15T01:07:09.870Z,1.70
2018-07-15T01:09:38.169Z,1.60
2018-07-15T01:12:06.452Z,1.37
2018-07-15T01:14:34.748Z,1.53
2018-07-15T01:17:03.023Z,1.40
2018-07-15T01:19:31.325Z,1.63
2018-07-15T01:21:59.579Z,1.40
2018-07-15T01:24:27.873Z,1.60
2018-07-15T01:26:56.121Z,1.57
2018-07-15T01:29:24.385Z,1.47
2018-07-15T01:31:52.769Z,1.60
2018-07-15T01:34:21.049Z,1.70
2018-07-15T01:36:49.307Z,1.70
2018-07-15T01:39:17.600Z,1.90
2018-07-15T01:41:45.862Z,1.53
2018-07-15T01:44:14.133Z,1.53
2018-07-15T01:46:42.439Z,1.63
2018-07-15T01:50:39.941Z,1.60
2018-07-15T01:53:08.576Z,2.00
2018-07-15T01:55:36.837Z,2.50
2018-07-15T01:58:05.341Z,1.90
2018-07-15T02:00:33.604Z,1.67
2018-07-15T02:03:01.927Z,1.83
2018-07-15T02:05:30.385Z,2.03
2018-07-15T02:07:59.025Z,2.27
2018-07-15T02:10:27.294Z,1.77
2018-07-15T02:12:55.578Z,2.03
2018-07-15T02:15:23.848Z,2.23
2018-07-15T02:17:52.440Z,2.27
2018-07-15T02:20:20.733Z,2.10
2018-07-15T02:22:49.003Z,2.30
2018-07-15T02:25:17.259Z,2.00
2018-07-15T02:27:45.557Z,2.00
2018-07-15T02:30:14.192Z,2.00
2018-07-15T02:32:42.226Z,2.20
2018-07-15T02:35:10.500Z,2.23
2018-07-15T02:37:38.764Z,1.90
2018-07-15T02:40:07.052Z,2.07
2018-07-15T02:42:35.348Z,2.00
2018-07-15T02:45:03.815Z,2.20
2018-07-15T02:47:32.117Z,2.13
2018-07-15T02:50:00.369Z,2.40
2018-07-15T02:52:28.624Z,2.13
2018-07-15T02:54:56.882Z,2.03
2018-07-15T02:57:25.406Z,2.10
2018-07-15T02:59:53.710Z,2.27
2018-07-15T03:02:22.019Z,2.07
2018-07-15T03:04:50.288Z,2.17
2018-07-15T03:07:18.558Z,2.17
2018-07-15T03:09:46.818Z,2.60
2018-07-15T03:12:15.111Z,2.40
2018-07-15T03:14:43.416Z,2.87
2018-07-15T03:17:11.735Z,2.20
2018-07-15T03:19:40.163Z,2.13
2018-07-15T03:22:08.963Z,2.20
2018-07-15T03:24:37.406Z,2.37
2018-07-15T03:27:05.674Z,2.30
2018-07-15T03:29:34.303Z,2.27
2018-07-15T03:32:02.946Z,2.30
2018-07-15T03:34:31.197Z,2.30
2018-07-15T03:36:59.467Z,2.37
2018-07-15T03:39:27.757Z,2.70
2018-07-15T03:41:56.061Z,2.50
2018-07-15T03:44:24.660Z,2.60
2018-07-15T03:46:53.254Z,2.40
2018-07-15T03:49:21.510Z,2.80
2018-07-15T03:51:49.767Z,2.47
2018-07-15T03:54:18.535Z,2.80
2018-07-15T03:56:46.822Z,2.80
2018-07-15T03:59:15.078Z,2.60
2018-07-15T04:01:43.364Z,2.27
2018-07-15T04:04:11.634Z,2.83
2018-07-15T04:06:39.876Z,3.30
2018-07-15T04:09:08.514Z,2.80
2018-07-15T04:11:36.939Z,2.57
2018-07-15T04:14:05.394Z,2.90
2018-07-15T04:16:33.635Z,2.90
2018-07-15T04:19:01.897Z,2.50
2018-07-15T04:21:30.176Z,2.63
2018-07-15T04:23:58.436Z,2.80
2018-07-15T04:26:26.701Z,3.10
2018-07-15T04:28:55.298Z,3.10
2018-07-15T04:31:23.571Z,2.50
2018-07-15T04:33:51.805Z,2.83
2018-07-15T04:36:20.109Z,2.90
2018-07-15T04:38:48.357Z,3.20
2018-07-15T04:41:16.616Z,3.13
2018-07-15T04:43:44.918Z,2.90
2018-07-15T04:46:13.357Z,3.10
2018-07-15T04:48:41.663Z,2.80
2018-07-15T04:51:09.911Z,3.10
2018-07-15T04:53:38.161Z,2.90
2018-07-15T04:56:07.011Z,3.23
2018-07-15T04:58:35.282Z,2.90
2018-07-15T05:01:03.790Z,2.97
2018-07-15T05:03:32.040Z,3.13
2018-07-15T05:06:00.471Z,3.70
2018-07-15T05:08:29.069Z,3.00
2018-07-15T05:10:57.359Z,3.50
2018-07-15T05:13:25.640Z,3.57
2018-07-15T05:15:54.075Z,3.57
2018-07-15T05:18:22.342Z,3.50
2018-07-15T05:20:50.516Z,3.77
2018-07-15T05:23:18.967Z,3.40
2018-07-15T05:25:47.261Z,3.70
2018-07-15T05:28:15.523Z,3.47
2018-07-15T05:30:43.784Z,3.60
2018-07-15T05:33:12.668Z,3.67
2018-07-15T05:35:40.973Z,3.30
2018-07-15T05:38:09.305Z,3.73
2018-07-15T05:40:37.630Z,3.40
2018-07-15T05:43:05.915Z,3.10
2018-07-15T05:45:34.191Z,3.00
2018-07-15T05:48:02.505Z,4.10
2018-07-15T05:50:30.780Z,3.13
2018-07-15T05:52:59.086Z,3.03
2018-07-15T05:55:27.904Z,3.30
2018-07-15T05:57:56.209Z,3.23
2018-07-15T06:00:24.618Z,3.17
2018-07-15T06:02:53.483Z,3.22
2018-07-15T06:05:32.044Z,3.08
2018-07-15T06:08:00.864Z,3.35
2018-07-15T06:10:29.717Z,3.33
2018-07-15T06:12:58.559Z,3.33
2018-07-15T06:15:27.573Z,3.33
2018-07-15T06:17:56.763Z,3.40
2018-07-15T06:20:25.720Z,3.40
2018-07-15T06:22:54.604Z,3.22
2018-07-15T06:25:23.475Z,3.10
2018-07-15T06:27:52.302Z,3.55
2018-07-15T06:30:21.181Z,3.30
2018-07-15T06:32:50.049Z,3.65
2018-07-15T06:35:19.140Z,3.35
2018-07-15T06:37:47.963Z,3.50
2018-07-15T06:40:17.122Z,3.70
2018-07-15T06:42:45.961Z,3.22
2018-07-15T06:45:14.832Z,3.60
2018-07-15T06:47:43.444Z,3.75
2018-07-15T06:50:12.319Z,3.37
2018-07-15T06:52:41.255Z,2.98
2018-07-15T06:55:10.074Z,3.00
2018-07-15T06:57:38.977Z,3.47
2018-07-15T07:00:07.833Z,3.20
2018-07-15T07:02:36.506Z,3.30
2018-07-15T07:05:05.384Z,2.70
2018-07-15T07:07:34.006Z,3.22
2018-07-15T07:10:04.300Z,3.08
2018-07-15T07:12:33.147Z,2.98
2018-07-15T07:15:02.048Z,2.90
2018-07-15T07:17:30.949Z,2.83
2018-07-15T07:19:59.850Z,3.22
2018-07-15T07:22:28.682Z,3.22
2018-07-15T07:24:57.632Z,2.90
2018-07-15T07:27:26.631Z,3.17
2018-07-15T07:29:55.892Z,2.90
2018-07-15T07:32:28.131Z,3.12
2018-07-15T07:34:56.734Z,3.22
2018-07-15T07:37:25.349Z,3.47
2018-07-15T07:39:54.210Z,2.87
2018-07-15T07:42:26.075Z,2.90
2018-07-15T07:44:54.937Z,2.83
2018-07-15T07:47:23.811Z,3.10
2018-07-15T07:49:52.712Z,2.80
2018-07-15T07:52:21.579Z,3.08
2018-07-15T07:54:50.486Z,2.42
2018-07-15T07:57:19.543Z,2.52
2018-07-15T07:59:48.160Z,2.50
2018-07-15T08:02:16.731Z,2.77
2018-07-15T08:04:46.277Z,2.47
2018-07-15T08:07:15.159Z,2.55
2018-07-15T08:09:44.022Z,2.40
2018-07-15T08:12:12.908Z,2.55
2018-07-15T08:14:41.824Z,2.58
2018-07-15T08:17:11.071Z,2.00
2018-07-15T08:19:39.969Z,2.47
2018-07-15T08:22:09.146Z,2.42
2018-07-15T08:24:38.240Z,2.30
2018-07-15T08:27:07.597Z,1.82
2018-07-15T08:29:40.997Z,1.98
2018-07-15T08:32:09.869Z,1.98
2018-07-15T08:34:38.760Z,1.75
2018-07-15T08:37:07.655Z,1.92
2018-07-15T08:39:36.359Z,2.27
2018-07-15T08:42:05.264Z,1.95
2018-07-15T08:44:35.972Z,2.17
2018-07-15T08:47:04.867Z,1.70
2018-07-15T08:49:33.777Z,1.80
2018-07-15T08:52:02.698Z,1.77
2018-07-15T08:54:31.578Z,1.75
2018-07-15T08:57:00.492Z,1.95
2018-07-15T08:59:29.323Z,1.67
2018-07-15T09:01:57.958Z,1.60
2018-07-15T09:04:26.834Z,1.47
2018-07-15T09:06:55.747Z,1.70
2018-07-15T09:09:24.767Z,1.42
2018-07-15T09:11:53.378Z,1.70
2018-07-15T09:14:22.202Z,1.42
2018-07-15T09:16:51.072Z,1.70
2018-07-15T09:19:19.976Z,1.55
2018-07-15T09:21:48.888Z,1.27
2018-07-15T09:24:18.217Z,1.25
2018-07-15T09:26:47.084Z,1.00
2018-07-15T09:29:15.947Z,1.32
2018-07-15T09:31:44.852Z,1.15
2018-07-15T09:34:13.974Z,1.32
2018-07-15T09:36:42.832Z,1.45
2018-07-15T09:39:11.702Z,1.10
2018-07-15T09:41:40.574Z,0.98
2018-07-15T09:44:09.600Z,1.10
2018-07-15T09:46:38.496Z,1.02
2018-07-15T09:49:07.422Z,1.20
2018-07-15T09:51:36.302Z,0.80
2018-07-15T09:54:05.383Z,0.80
2018-07-15T09:56:34.256Z,1.10
2018-07-15T09:59:03.401Z,1.00
2018-07-15T10:01:32.071Z,1.30
2018-07-15T10:04:01.046Z,1.30
2018-07-15T10:06:29.959Z,1.10
2018-07-15T10:08:58.946Z,0.88
2018-07-15T10:11:28.468Z,1.40
2018-07-15T10:13:57.483Z,1.30
2018-07-15T10:16:26.451Z,1.40
2018-07-15T10:18:55.345Z,1.27
2018-07-15T10:21:24.364Z,1.35
2018-07-15T10:23:54.098Z,1.30
2018-07-15T10:26:22.926Z,1.47
2018-07-15T10:28:52.644Z,1.40
2018-07-15T10:31:21.948Z,1.80
2018-07-15T10:33:52.873Z,1.60
2018-07-15T10:36:27.456Z,1.98
2018-07-15T10:39:04.050Z,1.72
2018-07-15T10:41:36.141Z,1.62
2018-07-15T10:47:01.661Z,1.87
2018-07-15T10:49:31.947Z,2.10
2018-07-15T10:52:10.188Z,2.15
2018-07-15T10:54:41.662Z,1.80
2018-07-15T10:57:11.104Z,1.80
2018-07-15T10:59:40.262Z,2.00
2018-07-15T11:02:09.254Z,1.70
2018-07-15T11:04:39.325Z,2.20
2018-07-15T11:07:08.504Z,1.98
2018-07-15T11:09:37.721Z,1.92
2018-07-15T11:12:06.769Z,2.00
2018-07-15T11:14:35.806Z,2.02
2018-07-15T11:17:04.982Z,2.30
2018-07-15T11:19:34.882Z,2.17
2018-07-15T11:22:04.054Z,2.02
2018-07-15T11:24:32.992Z,2.27
2018-07-15T11:27:02.244Z,2.15
2018-07-15T11:29:31.303Z,1.90
2018-07-15T11:33:29.493Z,2.05
2018-07-15T11:35:58.154Z,2.35
2018-07-15T11:38:27.181Z,2.00
2018-07-15T11:40:56.102Z,2.25
2018-07-15T11:43:25.170Z,2.20
2018-07-15T11:45:54.179Z,2.15
2018-07-15T11:48:24.079Z,2.08
2018-07-15T11:50:53.053Z,2.40
2018-07-15T11:53:21.988Z,2.10
2018-07-15T11:55:51.179Z,2.15
2018-07-15T11:58:20.374Z,2.83
2018-07-15T12:00:48.963Z,2.30
2018-07-15T12:03:18.149Z,2.00
2018-07-15T12:05:46.778Z,2.30
2018-07-15T12:08:15.408Z,2.10
2018-07-15T12:10:44.000Z,2.20
2018-07-15T12:13:12.685Z,2.33
2018-07-15T12:15:41.214Z,2.27
2018-07-15T12:18:09.793Z,2.00
2018-07-15T12:20:38.371Z,2.10
2018-07-15T12:23:07.264Z,2.30
2018-07-15T12:25:36.793Z,2.10
2018-07-15T12:28:05.880Z,2.17
2018-07-15T12:30:34.704Z,2.00
2018-07-15T12:33:03.505Z,2.10
2018-07-15T12:35:32.165Z,2.10
2018-07-15T12:38:03.197Z,2.00
2018-07-15T12:40:32.134Z,1.97
2018-07-15T12:43:04.492Z,2.30
2018-07-15T12:45:33.701Z,2.00
2018-07-15T12:48:02.416Z,2.50
2018-07-15T12:50:31.218Z,2.07
2018-07-15T12:53:00.609Z,2.30
2018-07-15T12:55:29.330Z,2.10
2018-07-15T12:57:58.834Z,2.53
2018-07-15T13:00:27.656Z,2.20
2018-07-15T13:02:56.921Z,2.33
2018-07-15T13:05:25.963Z,2.03
2018-07-15T13:07:55.008Z,2.20
2018-07-15T13:10:24.228Z,2.10
2018-07-15T13:12:53.081Z,1.90
2018-07-15T13:15:21.993Z,2.10
2018-07-15T13:17:51.158Z,1.90
2018-07-15T13:20:20.768Z,1.80
2018-07-15T13:22:49.718Z,1.90
2018-07-15T13:25:18.670Z,1.97
2018-07-15T13:27:48.047Z,4.50
2018-07-15T13:30:16.981Z,1.90
2018-07-15T13:32:46.775Z,1.83
2018-07-15T13:35:15.582Z,1.77
2018-07-15T13:37:44.209Z,1.73
2018-07-15T13:40:12.844Z,1.60
2018-07-15T13:42:41.502Z,1.70
2018-07-15T13:45:10.098Z,1.60
2018-07-15T13:47:38.772Z,1.80
2018-07-15T13:50:07.711Z,1.80
2018-07-15T13:52:36.309Z,1.80
2018-07-15T13:55:04.999Z,1.70
2018-07-15T13:57:33.609Z,1.63
2018-07-15T14:00:02.243Z,1.80
2018-07-15T14:02:30.918Z,1.60
2018-07-15T14:04:59.780Z,1.70
2018-07-15T14:07:28.445Z,1.50
2018-07-15T14:09:57.073Z,1.60
2018-07-15T14:12:25.659Z,1.50
2018-07-15T14:14:54.291Z,1.60
2018-07-15T14:17:22.929Z,1.37
2018-07-15T14:19:51.606Z,1.70
2018-07-15T14:22:20.481Z,1.43
2018-07-15T14:24:49.097Z,1.50
2018-07-15T14:27:17.757Z,1.30
2018-07-15T14:29:46.424Z,1.67
2018-07-15T14:32:15.065Z,2.20
2018-07-15T14:34:43.732Z,1.53
2018-07-15T14:37:12.679Z,1.60
2018-07-15T14:39:41.653Z,1.50
2018-07-15T14:42:10.285Z,1.70
2018-07-15T14:44:39.564Z,1.40
2018-07-15T14:47:08.219Z,1.27
2018-07-15T14:49:36.845Z,1.40
2018-07-15T14:52:05.606Z,1.50
2018-07-15T14:54:34.484Z,1.50
2018-07-15T14:57:03.156Z,1.30
2018-07-15T14:59:31.861Z,1.40
2018-07-15T15:02:00.588Z,1.30
2018-07-15T15:04:29.485Z,1.30
2018-07-15T15:06:58.102Z,1.30
2018-07-15T15:09:26.703Z,1.30
2018-07-15T15:11:55.380Z,1.37
2018-07-15T15:14:24.327Z,1.20
2018-07-15T15:16:52.877Z,1.50
2018-07-15T15:19:21.433Z,1.40
2018-07-15T15:21:50.086Z,1.17
2018-07-15T15:24:18.734Z,1.20
2018-07-15T15:26:47.350Z,1.10
2018-07-15T15:29:15.936Z,1.30
2018-07-15T15:31:44.966Z,1.13
2018-07-15T15:34:13.601Z,1.30
2018-07-15T15:36:42.308Z,1.33
2018-07-15T15:39:11.078Z,1.47
2018-07-15T15:41:39.680Z,1.37
2018-07-15T15:44:08.260Z,1.30
2018-07-15T15:46:36.896Z,1.20
2018-07-15T15:49:05.603Z,1.47
2018-07-15T15:51:34.380Z,1.57
2018-07-15T15:54:03.050Z,1.20
2018-07-15T15:56:31.878Z,1.20
2018-07-15T15:59:00.630Z,1.40
2018-07-15T16:01:29.522Z,1.50
2018-07-15T16:03:58.519Z,1.20
2018-07-15T16:06:27.487Z,1.10
2018-07-15T16:08:56.658Z,1.40
2018-07-15T16:11:25.527Z,1.20
2018-07-15T16:13:54.415Z,1.33
2018-07-15T16:16:23.398Z,1.20
2018-07-15T16:18:52.210Z,1.20
2018-07-15T16:21:21.071Z,1.30
2018-07-15T16:23:49.909Z,1.30
2018-07-15T16:26:21.047Z,1.27
2018-07-15T16:28:50.539Z,1.20
2018-07-15T16:31:19.597Z,1.30
2018-07-15T16:33:48.712Z,1.20
2018-07-15T16:36:17.744Z,1.30
2018-07-15T16:38:46.553Z,1.20
2018-07-15T16:41:15.294Z,1.30
2018-07-15T16:43:44.064Z,1.13
2018-07-15T16:46:12.854Z,1.43
2018-07-15T16:48:41.602Z,1.37
2018-07-15T16:51:10.384Z,1.30
2018-07-15T16:53:39.102Z,1.20
2018-07-15T16:56:07.770Z,1.37
2018-07-15T16:58:37.196Z,1.30
2018-07-15T17:01:05.838Z,1.30
2018-07-15T17:03:34.470Z,1.27
2018-07-15T17:06:03.080Z,1.40
2018-07-15T17:08:32.151Z,7.37
2018-07-15T17:11:00.871Z,1.50
2018-07-15T17:13:29.471Z,1.13
2018-07-15T17:15:58.129Z,1.50
2018-07-15T17:18:26.949Z,1.43
2018-07-15T17:20:55.587Z,1.60
2018-07-15T17:23:24.206Z,1.40
2018-07-15T17:25:52.834Z,1.30
2018-07-15T17:28:21.463Z,1.33
2018-07-15T17:30:50.176Z,1.40
2018-07-15T17:33:18.785Z,1.73
2018-07-15T17:35:47.454Z,4.10
2018-07-15T17:38:16.092Z,1.90
2018-07-15T17:40:44.743Z,1.50
2018-07-15T17:43:13.374Z,2.03
2018-07-15T17:45:42.005Z,1.53
2018-07-15T17:48:10.656Z,1.70
2018-07-15T17:50:39.284Z,2.20
2018-07-15T17:53:08.197Z,1.70
2018-07-15T17:55:36.932Z,1.70
2018-07-15T17:58:05.902Z,1.85
2018-07-15T18:00:34.553Z,1.40
2018-07-15T18:03:03.612Z,1.50
2018-07-15T18:05:34.147Z,1.50
2018-07-15T18:08:03.097Z,1.50
2018-07-15T18:10:32.014Z,1.30
2018-07-15T18:13:01.129Z,1.50
2018-07-15T18:15:30.061Z,1.50
2018-07-15T18:17:59.266Z,1.30
2018-07-15T18:21:57.361Z,1.30
2018-07-15T18:24:26.239Z,1.60
2018-07-15T18:26:55.210Z,1.35
2018-07-15T18:29:24.170Z,1.60
2018-07-15T18:31:53.386Z,1.27
2018-07-15T18:34:22.512Z,1.65
2018-07-15T18:36:53.571Z,1.55
2018-07-15T18:39:23.218Z,1.60
2018-07-15T18:41:52.296Z,1.50
2018-07-15T18:44:21.965Z,1.50
2018-07-15T18:46:50.896Z,1.50
2018-07-15T18:49:19.858Z,1.62
2018-07-15T18:51:48.930Z,1.92
2018-07-15T18:54:17.830Z,1.60
2018-07-15T18:56:46.861Z,1.80
2018-07-15T18:59:15.811Z,1.85
2018-07-15T19:01:44.892Z,1.90
2018-07-15T19:04:14.313Z,1.72
2018-07-15T19:06:43.315Z,1.50
2018-07-15T19:09:12.386Z,1.65
2018-07-15T19:11:41.369Z,1.60
2018-07-15T19:14:10.450Z,1.60
2018-07-15T19:16:39.404Z,1.55
2018-07-15T19:19:08.328Z,1.50
2018-07-15T19:21:37.185Z,1.87
2018-07-15T19:24:06.323Z,1.82
2018-07-15T19:26:35.498Z,1.80
2018-07-15T19:29:04.525Z,1.77
2018-07-15T19:31:34.055Z,1.80
2018-07-15T19:34:03.291Z,1.75
2018-07-15T19:36:32.746Z,1.80
2018-07-15T19:39:01.745Z,1.60
2018-07-15T19:41:31.422Z,1.70
2018-07-15T19:44:00.805Z,1.75
2018-07-15T19:46:29.888Z,1.65
2018-07-15T19:48:59.082Z,1.60
2018-07-15T19:51:28.356Z,1.60
2018-07-15T19:53:58.457Z,1.90
2018-07-15T19:56:27.820Z,1.80
2018-07-15T19:58:56.962Z,1.85
2018-07-15T20:01:26.256Z,2.30
2018-07-15T20:03:58.253Z,1.85
2018-07-15T20:06:27.357Z,2.12
2018-07-15T20:08:56.420Z,1.52
2018-07-15T20:11:25.448Z,1.65
2018-07-15T20:13:54.375Z,1.70
2018-07-15T20:16:23.368Z,1.95
2018-07-15T20:18:52.329Z,1.87
2018-07-15T20:21:21.277Z,1.90
2018-07-15T20:23:50.514Z,1.80
2018-07-15T20:26:19.627Z,2.00
2018-07-15T20:28:48.919Z,2.30
2018-07-15T20:31:18.147Z,2.12
2018-07-15T20:33:47.024Z,2.30
2018-07-15T20:36:19.174Z,2.37
2018-07-15T20:38:48.069Z,2.17
2018-07-15T20:41:17.035Z,2.15
2018-07-15T20:43:46.005Z,2.20
2018-07-15T20:46:14.964Z,2.00
2018-07-15T20:48:47.322Z,2.02
2018-07-15T20:51:16.795Z,2.00
2018-07-15T20:53:46.149Z,1.92
2018-07-15T20:56:16.337Z,2.08
2018-07-15T20:58:46.340Z,1.80
2018-07-15T21:02:44.674Z,1.92
2018-07-15T21:05:14.684Z,2.20
2018-07-15T21:07:43.842Z,1.90
2018-07-15T21:12:52.686Z,2.40
2018-07-15T21:15:25.410Z,2.60
2018-07-15T21:17:56.305Z,2.50
2018-07-15T21:20:25.790Z,2.30
2018-07-15T21:22:54.927Z,2.80
2018-07-15T21:25:24.117Z,2.70
2018-07-15T21:27:53.500Z,3.10
2018-07-15T21:30:23.195Z,2.90
2018-07-15T21:32:52.303Z,2.83
2018-07-15T21:35:21.388Z,2.65
2018-07-15T21:37:50.510Z,2.98
2018-07-15T21:40:19.819Z,2.70
2018-07-15T21:42:49.358Z,2.47
2018-07-15T21:45:19.182Z,2.58
2018-07-15T21:47:48.098Z,2.60
2018-07-15T21:50:17.289Z,2.70
2018-07-15T21:52:47.304Z,3.02
2018-07-15T21:55:29.452Z,3.37
2018-07-15T21:58:04.246Z,2.75
2018-07-15T22:03:12.897Z,2.92
2018-07-15T22:05:46.129Z,3.30
2018-07-15T22:08:26.713Z,2.83
2018-07-15T22:10:56.363Z,2.40
2018-07-15T22:13:26.011Z,2.87
2018-07-15T22:15:56.723Z,2.58
2018-07-15T22:18:26.712Z,2.75
2018-07-15T22:20:56.041Z,3.47
2018-07-15T22:23:24.619Z,2.95
2018-07-15T22:25:57.036Z,3.15
2018-07-15T22:35:11.853Z,3.20
2018-07-15T22:37:41.125Z,2.95
2018-07-15T22:40:09.779Z,2.93
2018-07-15T22:42:39.157Z,2.70
2018-07-15T22:45:09.048Z,2.87
2018-07-15T22:47:38.893Z,3.00
2018-07-15T22:50:11.449Z,3.00
2018-07-15T22:52:40.761Z,3.45
2018-07-15T22:55:13.090Z,3.33
2018-07-15T22:57:42.495Z,3.10
2018-07-15T23:00:12.111Z,3.00
2018-07-15T23:02:41.654Z,3.00
2018-07-15T23:05:51.046Z,3.00
2018-07-15T23:08:21.392Z,3.08
2018-07-15T23:10:50.826Z,3.45
2018-07-15T23:13:19.845Z,3.30
2018-07-15T23:15:48.508Z,3.30
2018-07-15T23:18:16.801Z,3.43
2018-07-15T23:20:46.080Z,3.40
2018-07-15T23:23:15.110Z,3.58
2018-07-15T23:25:44.036Z,2.95
2018-07-15T23:28:14.132Z,3.25
2018-07-15T23:30:43.193Z,3.17
2018-07-15T23:33:12.465Z,3.80
2018-07-15T23:35:40.716Z,3.27
2018-07-15T23:38:09.026Z,3.60
2018-07-15T23:40:37.046Z,3.97
2018-07-15T23:43:05.555Z,4.00
2018-07-15T23:45:34.572Z,3.73
2018-07-15T23:48:02.887Z,3.67
2018-07-15T23:50:31.169Z,3.77
2018-07-15T23:52:59.598Z,3.87
2018-07-15T23:55:28.142Z,3.50
2018-07-15T23:57:56.790Z,3.43
